• Join FlightAware (Why Join?)
  • Login
  • US Flag 
10:37PM EST


 

Airport Tracker/Info


-or-


 

Live Flight TrackerFlight Track Log ✈ N9810H ✈ 29-Aug-2013 ✈ KLOU - KFLD

Flight Track Log - Related Links

Times and Time Zones

All times are in EDT time to prevent confusion due to time zone crossing. See the N9810H flight status page for this flight to view local times or setup timezone preferences in your user account.

Time Position Orientation Groundspeed Altitude Reporting Facility
EDT Latitude Longitude Course Direction KTS MPH feet Rate Location/Type
02:35PM 38.2240 -85.6790 299° West 77 89 1,000  Level FlightAware
02:36PM 38.2270 -85.6820 322° Northwest 79 91 1,100 420 Climbing FlightAware
02:36PM 38.2290 -85.6820 360° North 80 92 1,100 600 Level FlightAware
02:36PM 38.2380 -85.6780 19° North 89 102 1,400 540 Climbing FlightAware
02:36PM 38.2450 -85.6740 24° Northeast 94 108 1,500 420 Climbing FlightAware
02:37PM 38.2550 -85.6690 21° North 97 112 1,700 540 Climbing FlightAware
02:37PM 38.2630 -85.6650 21° North 98 113 1,900 600 Climbing FlightAware
02:37PM 38.2710 -85.6600 26° Northeast 93 107 2,100 780 Climbing FlightAware
02:38PM 38.2790 -85.6560 21° North 94 108 2,400 840 Climbing FlightAware
02:38PM 38.2890 -85.6580 351° North 93 107 2,700 180 Climbing FlightAware
02:38PM 38.2960 -85.6590 354° North 90 104 120 Descending FlightAware
02:39PM 38.3070 -85.6600 356° North 101 116 300 Level FlightAware
02:39PM 38.3180 -85.6610 356° North 110 127 300 Level FlightAware
02:39PM 38.3290 -85.6620 356° North 119 137 300 Level FlightAware
02:40PM 38.3400 -85.6640 352° North 124 143 300 Level FlightAware
02:40PM 38.3540 -85.6650 357° North 118 136 300 Level FlightAware
02:40PM 38.3610 -85.6660 354° North 129 148 300 Level FlightAware
02:41PM 38.3730 -85.6680 353° North 129 148 360 Level FlightAware
02:41PM 38.3870 -85.6700 354° North 126 145 360 Level FlightAware
02:41PM 38.3960 -85.6710 355° North 128 147 360 Level FlightAware
02:42PM 38.4020 -85.6730 345° North 120 138 360 Level FlightAware
02:42PM 38.4080 -85.6770 332° Northwest 132 152 360 Level FlightAware
02:42PM 38.4110 -85.6830 303° West 118 136 360 Level FlightAware
02:42PM 38.4180 -85.6940 309° West 102 117 360 Level FlightAware
02:43PM 38.4240 -85.7020 314° West 101 116 360 Level FlightAware
02:43PM 38.4300 -85.7080 322° Northwest 92 106 360 Level FlightAware
02:43PM 38.4350 -85.7150 312° West 93 107 420 Level FlightAware
02:44PM 38.4410 -85.7230 314° West 93 107 420 Level FlightAware
02:44PM 38.4470 -85.7300 318° Northwest 91 105 420 Level FlightAware
02:44PM 38.4520 -85.7370 312° West 87 100 420 Level FlightAware
02:44PM 38.4560 -85.7420 316° Northwest 90 104 420 Level FlightAware
02:45PM 38.4640 -85.7510 319° Northwest 87 100 420 Level FlightAware
02:45PM 38.4700 -85.7580 318° Northwest 83 96 480 Level FlightAware
02:46PM 38.4770 -85.7680 312° West 82 94 480 Level FlightAware
02:46PM 38.4840 -85.7760 318° Northwest 84 97 480 Level FlightAware
02:46PM 38.4900 -85.7840 314° West 83 96 540 Level FlightAware
02:47PM 38.4990 -85.7950 316° Northwest 106 122 540 Level FlightAware
02:47PM 38.5060 -85.8030 318° Northwest 112 129 540 Level FlightAware
02:48PM 38.5130 -85.8130 312° West 123 142 600 Level FlightAware
02:48PM 38.5220 -85.8240 316° Northwest 123 142 600 Level FlightAware
02:50PM 38.5650 -85.8780 316° Northwest 122 140 660 Level FlightAware
02:50PM 38.5730 -85.8880 316° Northwest 124 143 780 Level FlightAware
02:51PM 38.5870 -85.9060 315° West 125 144 840 Level FlightAware
02:51PM 38.5960 -85.9160 319° Northwest 123 142 900 Level FlightAware
02:51PM 38.6050 -85.9280 314° West 127 146 960 Level FlightAware
02:52PM 38.6140 -85.9410 312° West 132 152 1,020 Level FlightAware
02:52PM 38.6230 -85.9510 319° Northwest 130 150 1,080 Level FlightAware
02:52PM 38.6340 -85.9650 315° West 130 150 1,200 Level FlightAware
02:53PM 38.6610 -85.9980 316° Northwest 126 145 1,320 Level FlightAware
02:54PM 38.6700 -86.0110 312° West 127 146 1,680 Level FlightAware
02:54PM 38.6790 -86.0220 316° Northwest 125 144 1,920 Level FlightAware
02:54PM 38.6850 -86.0300 314° West 125 144 2,160 Level FlightAware
02:55PM 38.6970 -86.0450 316° Northwest 126 145 2,400 Level FlightAware
02:55PM 38.7050 -86.0560 313° West 127 146 2,940 Level FlightAware
02:56PM 38.7140 -86.0680 314° West 127 146 3,540 Level FlightAware
02:57PM 38.7456 -86.1072 314° West 126 145 6,000 2,580 Climbing Indianapolis Center
02:58PM 38.7697 -86.1378 315° West 123 142 6,000  Level Indianapolis Center
02:59PM 38.7950 -86.1692 316° Northwest 125 144 6,000 360 Level Indianapolis Center
03:00PM 38.8169 -86.1975 315° West 117 135 6,800 660 Climbing Indianapolis Center
03:01PM 38.8319 -86.2164 316° Northwest 87 100 7,400 480 Climbing Indianapolis Center
03:02PM 38.8453 -86.2328 316° Northwest 71 82 7,900 240 Climbing Indianapolis Center
03:03PM 38.8669 -86.2606 315° West 86 99 8,000  Climbing Indianapolis Center
03:04PM 38.8897 -86.2886 316° Northwest 108 124 8,000  Level Indianapolis Center
03:05PM 38.9125 -86.3189 314° West 115 132 8,000  Level Indianapolis Center
03:06PM 38.9358 -86.3469 317° Northwest 116 133 8,000  Level Indianapolis Center
03:07PM 38.9583 -86.3769 314° West 116 133 8,000  Level Indianapolis Center
03:08PM 38.9861 -86.4128 315° West 117 135 8,000  Level Indianapolis Center
03:09PM 39.0094 -86.4414 316° Northwest 118 136 8,000  Level Indianapolis Center
03:10PM 39.0325 -86.4722 314° West 118 136 8,000  Level Indianapolis Center
03:11PM 39.0558 -86.5008 316° Northwest 117 135 8,000  Level Indianapolis Center
03:12PM 39.0792 -86.5311 315° West 118 136 8,000  Level Indianapolis Center
03:14PM 39.1017 -86.5600 315° West 117 135 8,000  Level Indianapolis Center
03:15PM 39.1292 -86.5958 315° West 117 135 8,000  Level Indianapolis Center
03:16PM 39.1558 -86.6281 317° Northwest 119 137 8,000  Level Indianapolis Center
03:17PM 39.1819 -86.6464 331° Northwest 119 137 8,000  Level Indianapolis Center
03:18PM 39.2106 -86.6675 330° Northwest 119 137 8,000  Level Indianapolis Center
03:19PM 39.2383 -86.6903 328° Northwest 119 137 8,000  Level Indianapolis Center
03:20PM 39.2664 -86.7131 328° Northwest 119 137 8,000  Level Indianapolis Center
03:21PM 39.3003 -86.7397 329° Northwest 119 137 8,000 -60 Level Indianapolis Center
03:22PM 39.3283 -86.7625 328° Northwest 119 137 7,900 -60 Descending Indianapolis Center
03:23PM 39.3569 -86.7858 328° Northwest 120 138 7,900  Level Indianapolis Center
03:24PM 39.3853 -86.8092 328° Northwest 121 139 7,900  Level Indianapolis Center
03:25PM 39.4136 -86.8322 328° Northwest 121 139 7,900 -300 Level Indianapolis Center
03:26PM 39.4431 -86.8556 329° Northwest 123 142 7,300 -720 Descending Indianapolis Center
03:27PM 39.4761 -86.8817 329° Northwest 118 136 6,500 -600 Descending Indianapolis Center
03:28PM 39.5006 -86.9031 326° Northwest 112 129 6,100 -300 Descending Indianapolis Center
03:29PM 39.5264 -86.9236 328° Northwest 109 125 6,000 -60 Descending Indianapolis Center
03:30PM 39.5567 -86.9486 328° Northwest 122 140 6,000  Level Indianapolis Center
03:31PM 39.5850 -86.9725 327° Northwest 123 142 6,000  Level Indianapolis Center
03:32PM 39.6206 -87.0019 327° Northwest 125 144 6,000  Level Indianapolis Center
03:33PM 39.6506 -87.0250 329° Northwest 125 144 6,000 60 Level Indianapolis Center
03:39PM 39.8090 -87.1550 329° Northwest 123 142 60 Descending FlightAware
03:39PM 39.8180 -87.1630 326° Northwest 123 142 1,320 Level FlightAware
03:40PM 39.8330 -87.1750 328° Northwest 124 143 1,440 Level FlightAware
03:40PM 39.8430 -87.1830 328° Northwest 123 142 1,620 Level FlightAware
03:41PM 39.8520 -87.1910 326° Northwest 123 142 1,740 Level FlightAware
03:41PM 39.8640 -87.2010 327° Northwest 123 142 1,920 Level FlightAware
03:42PM 39.8840 -87.2180 327° Northwest 124 143 2,220 Level FlightAware
03:42PM 39.9030 -87.2330 329° Northwest 124 143 2,820 Level FlightAware
03:43PM 39.9120 -87.2400 329° Northwest 124 143 3,660 Level FlightAware
03:43PM 39.9230 -87.2500 325° Northwest 125 144 4,380 Level FlightAware
03:44PM 39.9380 -87.2620 328° Northwest 124 143 5,700 Level FlightAware
03:44PM 39.9556 -87.2781 328° Northwest 124 143 7,000 4,140 Climbing Chicago Center
03:45PM 39.9856 -87.3014 329° Northwest 126 145 7,000 -60 Level Chicago Center
03:51PM 40.1410 -87.4310 329° Northwest 84 97 -60 Descending FlightAware
03:51PM 40.1500 -87.4380 329° Northwest 84 97  Level FlightAware
03:51PM 40.1580 -87.4450 326° Northwest 105 121  Level FlightAware
03:52PM 40.1630 -87.4490 329° Northwest 110 127  Level FlightAware
03:52PM 40.1730 -87.4570 329° Northwest 110 127  Level FlightAware
03:53PM 40.2040 -87.4830 327° Northwest 120 138  Level FlightAware
03:54PM 40.2190 -87.4960 327° Northwest 121 139  Level FlightAware
03:55PM 40.2460 -87.5190 327° Northwest 119 137  Level FlightAware
03:55PM 40.2570 -87.5270 331° Northwest 120 138  Level FlightAware
03:55PM 40.2660 -87.5350 326° Northwest 119 137  Level FlightAware
03:56PM 40.2720 -87.5400 328° Northwest 120 138  Level FlightAware
03:56PM 40.2840 -87.5500 328° Northwest 120 138  Level FlightAware
03:59PM 40.3730 -87.6180 330° Northwest 120 138  Level FlightAware
04:00PM 40.3840 -87.6270 328° Northwest 120 138  Level FlightAware
04:02PM 40.4700 -87.6930 330° Northwest 121 139  Level FlightAware
04:03PM 40.4730 -87.6960 323° Northwest 122 140  Level FlightAware
04:03PM 40.4810 -87.7050 319° Northwest 122 140  Level FlightAware
04:03PM 40.4930 -87.7180 321° Northwest 122 140  Level FlightAware
04:04PM 40.5020 -87.7270 323° Northwest 121 139  Level FlightAware
04:04PM 40.5100 -87.7360 319° Northwest 121 139  Level FlightAware
04:04PM 40.5170 -87.7420 327° Northwest 121 139  Level FlightAware
04:05PM 40.5260 -87.7520 320° Northwest 121 139  Level FlightAware
04:05PM 40.5330 -87.7590 323° Northwest 120 138  Level FlightAware
04:05PM 40.5420 -87.7680 323° Northwest 121 139  Level FlightAware
04:05PM 40.5510 -87.7770 323° Northwest 120 138  Level FlightAware
04:06PM 40.5600 -87.7870 320° Northwest 121 139  Level FlightAware
04:06PM 40.5680 -87.7950 323° Northwest 122 140  Level FlightAware
04:06PM 40.5760 -87.8030 323° Northwest 122 140  Level FlightAware
04:07PM 40.5820 -87.8100 318° Northwest 123 142  Level FlightAware
04:07PM 40.5930 -87.8210 323° Northwest 121 139  Level FlightAware
04:07PM 40.5990 -87.8280 318° Northwest 121 139  Level FlightAware
04:08PM 40.6100 -87.8380 325° Northwest 121 139  Level FlightAware
04:08PM 40.6180 -87.8460 323° Northwest 121 139  Level FlightAware
04:08PM 40.6310 -87.8590 323° Northwest 122 140  Level FlightAware
04:09PM 40.6370 -87.8660 318° Northwest 122 140  Level FlightAware
04:09PM 40.6490 -87.8780 323° Northwest 120 138  Level FlightAware
04:09PM 40.6580 -87.8870 323° Northwest 121 139  Level FlightAware
04:10PM 40.6650 -87.8950 319° Northwest 121 139  Level FlightAware
04:10PM 40.6730 -87.9030 323° Northwest 121 139  Level FlightAware
04:10PM 40.6800 -87.9100 323° Northwest 121 139  Level FlightAware
04:11PM 40.6870 -87.9170 323° Northwest 121 139  Level FlightAware
04:11PM 40.7030 -87.9340 321° Northwest 121 139  Level FlightAware
04:12PM 40.7120 -87.9430 323° Northwest 121 139  Level FlightAware
04:12PM 40.7180 -87.9490 323° Northwest 121 139 60 Level FlightAware
04:12PM 40.7270 -87.9580 323° Northwest 121 139 60 Level FlightAware
04:12PM 40.7350 -87.9660 323° Northwest 121 139 60 Level FlightAware
04:13PM 40.7440 -87.9760 320° Northwest 121 139 60 Level FlightAware
04:13PM 40.7530 -87.9850 323° Northwest 121 139 60 Level FlightAware
04:13PM 40.7630 -87.9950 323° Northwest 121 139 60 Level FlightAware
04:14PM 40.7720 -88.0040 323° Northwest 121 139 60 Level FlightAware
04:14PM 40.7830 -88.0150 323° Northwest 121 139 60 Level FlightAware
04:14PM 40.7900 -88.0220 323° Northwest 121 139 60 Level FlightAware
04:15PM 40.8000 -88.0330 320° Northwest 120 138 60 Level FlightAware
04:15PM 40.8060 -88.0400 319° Northwest 120 138 60 Level FlightAware
04:15PM 40.8120 -88.0460 323° Northwest 121 139 60 Level FlightAware
04:16PM 40.8240 -88.0580 323° Northwest 118 136 60 Level FlightAware
04:16PM 40.8290 -88.0630 323° Northwest 117 135 60 Level FlightAware
04:16PM 40.8380 -88.0720 323° Northwest 116 133 60 Level FlightAware
04:17PM 40.8460 -88.0800 323° Northwest 116 133 60 Level FlightAware
04:17PM 40.8540 -88.0890 320° Northwest 116 133 60 Level FlightAware
04:17PM 40.8630 -88.0980 323° Northwest 117 135 60 Level FlightAware
04:18PM 40.8690 -88.1050 319° Northwest 119 137 60 Level FlightAware
04:18PM 40.8790 -88.1140 326° Northwest 123 142 60 Level FlightAware
04:18PM 40.8880 -88.1230 323° Northwest 123 142 60 Level FlightAware
04:19PM 40.8960 -88.1330 317° Northwest 121 139 60 Level FlightAware
04:19PM 40.9050 -88.1410 326° Northwest 121 139 60 Level FlightAware
04:19PM 40.9120 -88.1490 319° Northwest 121 139 60 Level FlightAware
04:19PM 40.9220 -88.1590 323° Northwest 121 139 60 Level FlightAware
04:20PM 40.9310 -88.1680 323° Northwest 121 139 60 Level FlightAware
04:20PM 40.9400 -88.1780 320° Northwest 121 139 60 Level FlightAware
04:21PM 40.9510 -88.1890 323° Northwest 120 138 60 Level FlightAware
04:21PM 40.9570 -88.1960 319° Northwest 121 139 60 Level FlightAware
04:21PM 40.9690 -88.2070 325° Northwest 120 138 60 Level FlightAware
04:21PM 40.9740 -88.2130 318° Northwest 121 139 60 Level FlightAware
04:22PM 40.9890 -88.2290 321° Northwest 121 139 60 Level FlightAware
04:22PM 40.9980 -88.2380 323° Northwest 120 138 60 Level FlightAware
04:23PM 41.0080 -88.2480 323° Northwest 119 137 60 Level FlightAware
04:23PM 41.0120 -88.2520 323° Northwest 120 138 60 Level FlightAware
04:23PM 41.0240 -88.2650 321° Northwest 120 138 60 Level FlightAware
04:24PM 41.0330 -88.2740 323° Northwest 120 138 60 Level FlightAware
04:24PM 41.0420 -88.2830 323° Northwest 120 138 60 Level FlightAware
04:24PM 41.0490 -88.2910 319° Northwest 120 138 60 Level FlightAware
04:25PM 41.0620 -88.3040 323° Northwest 120 138 60 Level FlightAware
04:25PM 41.0700 -88.3120 323° Northwest 121 139 60 Level FlightAware
04:25PM 41.0790 -88.3220 320° Northwest 121 139 60 Level FlightAware
04:26PM 41.0840 -88.3270 323° Northwest 121 139 60 Level FlightAware
04:26PM 41.0950 -88.3380 323° Northwest 120 138 60 Level FlightAware
04:26PM 41.1040 -88.3470 323° Northwest 120 138 60 Level FlightAware
04:27PM 41.1140 -88.3580 320° Northwest 120 138 60 Level FlightAware
04:27PM 41.1200 -88.3640 323° Northwest 121 139 60 Level FlightAware
04:27PM 41.1310 -88.3760 321° Northwest 121 139 60 Level FlightAware
04:28PM 41.1390 -88.3840 323° Northwest 120 138 60 Level FlightAware
04:28PM 41.1490 -88.3950 320° Northwest 119 137 60 Level FlightAware
04:28PM 41.1590 -88.4050 323° Northwest 120 138 60 Level FlightAware
04:29PM 41.1690 -88.4150 323° Northwest 120 138 60 Level FlightAware
04:29PM 41.1770 -88.4240 320° Northwest 120 138 60 Level FlightAware
04:30PM 41.1870 -88.4350 320° Northwest 118 136 60 Level FlightAware
04:30PM 41.1950 -88.4420 327° Northwest 119 137 60 Level FlightAware
04:30PM 41.2010 -88.4490 319° Northwest 119 137 60 Level FlightAware
04:30PM 41.2090 -88.4570 323° Northwest 119 137 60 Level FlightAware
04:31PM 41.2210 -88.4690 323° Northwest 121 139 60 Level FlightAware
04:31PM 41.2280 -88.4770 319° Northwest 121 139 60 Level FlightAware
04:32PM 41.2380 -88.4880 320° Northwest 121 139 60 Level FlightAware
04:32PM 41.2470 -88.4970 323° Northwest 123 142 60 Level FlightAware
04:32PM 41.2560 -88.5070 320° Northwest 122 140 60 Level FlightAware
04:32PM 41.2630 -88.5140 323° Northwest 122 140 60 Level FlightAware
04:33PM 41.2730 -88.5240 323° Northwest 121 139 60 Level FlightAware
04:33PM 41.2820 -88.5340 320° Northwest 121 139 60 Level FlightAware
04:34PM 41.2920 -88.5440 323° Northwest 122 140 60 Level FlightAware
04:34PM 41.3000 -88.5520 323° Northwest 122 140 60 Level FlightAware
04:34PM 41.3080 -88.5600 323° Northwest 121 139 60 Level FlightAware
04:34PM 41.3160 -88.5690 320° Northwest 122 140 60 Level FlightAware
04:35PM 41.3220 -88.5750 323° Northwest 121 139 60 Level FlightAware
04:35PM 41.3300 -88.5840 320° Northwest 122 140 60 Level FlightAware
04:35PM 41.3400 -88.5950 320° Northwest 122 140 60 Level FlightAware
04:36PM 41.3490 -88.6040 323° Northwest 121 139 60 Level FlightAware
04:36PM 41.3540 -88.6090 323° Northwest 122 140 60 Level FlightAware
04:36PM 41.3640 -88.6200 320° Northwest 121 139 60 Level FlightAware
04:37PM 41.3740 -88.6310 320° Northwest 121 139 60 Level FlightAware
04:37PM 41.3830 -88.6400 323° Northwest 122 140 60 Level FlightAware
04:37PM 41.3920 -88.6490 323° Northwest 122 140 60 Level FlightAware
04:37PM 41.3950 -88.6500 346° North 121 139 60 Level FlightAware
04:38PM 41.4010 -88.6510 353° North 121 139 60 Level FlightAware
04:38PM 41.4160 -88.6500 North 124 143 60 Level FlightAware
04:38PM 41.4270 -88.6480 North 123 142 60 Level FlightAware
04:39PM 41.4400 -88.6460 North 123 142 60 Level FlightAware
04:39PM 41.4460 -88.6460 360° North 123 142 60 Level FlightAware
04:39PM 41.4590 -88.6450 North 122 140 60 Level FlightAware
04:40PM 41.4690 -88.6550 323° Northwest 123 142 60 Level FlightAware
04:40PM 41.4730 -88.6660 296° West 124 143 60 Level FlightAware
04:40PM 41.4780 -88.6810 294° West 125 144 60 Level FlightAware
04:41PM 41.4840 -88.6950 300° West 125 144 60 Level FlightAware
04:41PM 41.4890 -88.7070 299° West 126 145 60 Level FlightAware
04:41PM 41.4930 -88.7200 292° West 125 144 60 Level FlightAware
04:42PM 41.4980 -88.7330 297° West 125 144 60 Level FlightAware
04:42PM 41.5040 -88.7480 298° West 124 143 60 Level FlightAware
04:42PM 41.5070 -88.7520 315° West 122 140 60 Level FlightAware
04:42PM 41.5090 -88.7530 339° North 121 139 60 Level FlightAware
04:42PM 41.5140 -88.7560 336° Northwest 120 138 60 Level FlightAware
04:43PM 41.5260 -88.7580 353° North 124 143 60 Level FlightAware
04:43PM 41.5380 -88.7610 349° North 123 142 60 Level FlightAware
04:43PM 41.5460 -88.7620 355° North 122 140 60 Level FlightAware
04:44PM 41.5560 -88.7650 347° North 123 142 60 Level FlightAware
04:44PM 41.5690 -88.7680 350° North 123 142 60 Level FlightAware
04:44PM 41.5780 -88.7710 346° North 123 142 60 Level FlightAware
04:44PM 41.5880 -88.7730 351° North 123 142 60 Level FlightAware
04:45PM 41.5950 -88.7750 348° North 124 143 60 Level FlightAware
04:45PM 41.6090 -88.7790 348° North 124 143 60 Level FlightAware
04:45PM 41.6210 -88.7820 349° North 124 143 60 Level FlightAware
04:46PM 41.6320 -88.7850 348° North 123 142 60 Level FlightAware
04:46PM 41.6390 -88.7870 348° North 123 142 60 Level FlightAware
04:46PM 41.6510 -88.7900 349° North 123 142 60 Level FlightAware
04:47PM 41.6610 -88.7930 347° North 123 142 60 Level FlightAware
04:47PM 41.6700 -88.7960 346° North 124 143 60 Level FlightAware
04:47PM 41.6850 -88.8000 349° North 124 143 60 Level FlightAware
04:48PM 41.6940 -88.8020 351° North 125 144 60 Level FlightAware
04:48PM 41.7040 -88.8050 347° North 125 144 60 Level FlightAware
04:48PM 41.7150 -88.8080 348° North 125 144 60 Level FlightAware
04:49PM 41.7260 -88.8110 348° North 125 144 60 Level FlightAware
04:49PM 41.7400 -88.8150 348° North 126 145 60 Level FlightAware
04:49PM 41.7470 -88.8160 354° North 125 144 60 Level FlightAware
04:49PM 41.7580 -88.8200 345° North 125 144 60 Level FlightAware
04:50PM 41.7660 -88.8220 349° North 125 144 60 Level FlightAware
04:50PM 41.7790 -88.8250 350° North 125 144 60 Level FlightAware
04:50PM 41.7900 -88.8290 345° North 125 144 60 Level FlightAware
04:51PM 41.8040 -88.8340 345° North 126 145 60 Level FlightAware
04:51PM 41.8150 -88.8380 345° North 125 144 60 Level FlightAware
04:51PM 41.8260 -88.8420 345° North 125 144 60 Level FlightAware
04:52PM 41.8350 -88.8460 342° North 126 145 60 Level FlightAware
04:52PM 41.8460 -88.8510 341° North 124 143 60 Level FlightAware
04:52PM 41.8570 -88.8550 345° North 125 144 60 Level FlightAware
04:53PM 41.8710 -88.8600 345° North 125 144 60 Level FlightAware
04:53PM 41.8750 -88.8620 340° North 124 143 60 Level FlightAware
04:53PM 41.8880 -88.8670 344° North 125 144 120 Level FlightAware
04:54PM 41.8990 -88.8710 345° North 125 144 120 Level FlightAware
04:54PM 41.9130 -88.8760 345° North 125 144 120 Level FlightAware
04:54PM 41.9250 -88.8810 343° North 125 144 120 Level FlightAware
04:55PM 41.9340 -88.8840 346° North 125 144 120 Level FlightAware
04:55PM 41.9470 -88.8880 347° North 125 144 120 Level FlightAware
04:56PM 41.9630 -88.8860 North 124 143 120 Level FlightAware
04:56PM 41.9740 -88.8830 11° North 125 144 120 Level FlightAware
04:56PM 41.9840 -88.8800 13° North 126 145 120 Level FlightAware
04:56PM 41.9960 -88.8770 11° North 126 145 120 Level FlightAware
04:57PM 42.0080 -88.8740 11° North 126 145 120 Level FlightAware
04:57PM 42.0130 -88.8730 North 127 146 120 Level FlightAware
04:57PM 42.0260 -88.8700 10° North 127 146 120 Level FlightAware
04:58PM 42.0400 -88.8670 North 126 145 120 Level FlightAware
04:58PM 42.0470 -88.8660 North 127 146 120 Level FlightAware
04:58PM 42.0600 -88.8630 10° North 125 144 120 Level FlightAware
04:59PM 42.0730 -88.8600 10° North 126 145 120 Level FlightAware
04:59PM 42.0800 -88.8590 North 125 144 120 Level FlightAware
04:59PM 42.0930 -88.8560 10° North 126 145 120 Level FlightAware
04:59PM 42.0990 -88.8550 North 125 144 120 Level FlightAware
05:00PM 42.1110 -88.8520 11° North 126 145 120 Level FlightAware
05:00PM 42.1250 -88.8490 North 126 145 120 Level FlightAware
05:01PM 42.1380 -88.8470 North 126 145 120 Level FlightAware
05:01PM 42.1490 -88.8440 11° North 126 145 120 Level FlightAware
05:01PM 42.1620 -88.8410 10° North 127 146 120 Level FlightAware
05:02PM 42.1710 -88.8390 North 127 146 120 Level FlightAware
05:02PM 42.1860 -88.8360 North 126 145 120 Level FlightAware
05:02PM 42.1930 -88.8350 North 128 147 120 Level FlightAware
05:02PM 42.2040 -88.8330 North 128 147 120 Level FlightAware
05:03PM 42.2160 -88.8300 10° North 128 147 120 Level FlightAware
05:03PM 42.2310 -88.8270 North 127 146 120 Level FlightAware
05:04PM 42.2410 -88.8240 13° North 126 145 120 Level FlightAware
05:04PM 42.2510 -88.8220 North 125 144 120 Level FlightAware
05:04PM 42.2630 -88.8200 North 126 145 120 Level FlightAware
05:05PM 42.2790 -88.8160 10° North 125 144 120 Level FlightAware
05:05PM 42.2890 -88.8140 North 126 145 120 Level FlightAware
05:05PM 42.3000 -88.8120 North 126 145 120 Level FlightAware
05:06PM 42.3110 -88.8100 North 126 145 120 Level FlightAware
05:06PM 42.3250 -88.8070 North 137 158 120 Level FlightAware
05:06PM 42.3390 -88.8030 12° North 142 163 120 Level FlightAware
05:07PM 42.3540 -88.8000 North 137 158 120 Level FlightAware
05:07PM 42.3650 -88.7980 North 136 157 120 Level FlightAware
05:07PM 42.3770 -88.7960 North 133 153 180 Level FlightAware
05:08PM 42.3890 -88.7930 10° North 130 150 180 Level FlightAware
05:08PM 42.4020 -88.7900 10° North 128 147 180 Level FlightAware
05:08PM 42.4140 -88.7880 North 128 147 180 Level FlightAware
05:09PM 42.4280 -88.7850 North 129 148 180 Level FlightAware
05:09PM 42.4410 -88.7820 10° North 129 148 180 Level FlightAware
05:09PM 42.4500 -88.7800 North 129 148 180 Level FlightAware
05:10PM 42.4570 -88.7780 12° North 129 148 180 Level FlightAware
05:10PM 42.4690 -88.7760 North 129 148 180 Level FlightAware
05:10PM 42.4800 -88.7730 11° North 129 148 180 Level FlightAware
05:11PM 42.4900 -88.7710 North 129 148 180 Level FlightAware
05:11PM 42.5070 -88.7680 North 128 147 180 Level FlightAware
05:11PM 42.5140 -88.7660 12° North 129 148 180 Level FlightAware
05:12PM 42.5320 -88.7620 North 129 148 180 Level FlightAware
05:12PM 42.5440 -88.7600 North 128 147 180 Level FlightAware
05:12PM 42.5570 -88.7570 10° North 129 148 180 Level FlightAware
05:13PM 42.5710 -88.7540 North 128 147 180 Level FlightAware
05:13PM 42.5780 -88.7520 12° North 128 147 180 Level FlightAware
05:13PM 42.5910 -88.7490 10° North 129 148 180 Level FlightAware
05:14PM 42.6040 -88.7470 North 128 147 180 Level FlightAware
05:14PM 42.6110 -88.7450 12° North 129 148 180 Level FlightAware
05:14PM 42.6240 -88.7420 10° North 128 147 240 Level FlightAware
05:14PM 42.6310 -88.7410 North 128 147 240 Level FlightAware
05:15PM 42.6450 -88.7380 North 129 148 240 Level FlightAware
05:15PM 42.6510 -88.7360 14° North 128 147 240 Level FlightAware
05:15PM 42.6670 -88.7330 North 130 150 240 Level FlightAware
05:16PM 42.6800 -88.7300 10° North 130 150 240 Level FlightAware
05:16PM 42.6880 -88.7280 10° North 129 148 240 Level FlightAware
05:16PM 42.6990 -88.7260 North 129 148 240 Level FlightAware
05:17PM 42.7150 -88.7230 North 129 148 240 Level FlightAware
05:17PM 42.7280 -88.7200 10° North 129 148 240 Level FlightAware
05:17PM 42.7390 -88.7170 11° North 128 147 240 Level FlightAware
05:18PM 42.7500 -88.7150 North 129 148 240 Level FlightAware
05:18PM 42.7610 -88.7130 North 127 146 240 Level FlightAware
05:18PM 42.7720 -88.7100 11° North 128 147 300 Level FlightAware
05:19PM 42.7800 -88.7080 10° North 128 147 300 Level FlightAware
05:19PM 42.7930 -88.7060 North 129 148 300 Level FlightAware
05:19PM 42.8050 -88.7030 10° North 126 145 300 Level FlightAware
05:20PM 42.8160 -88.7010 North 127 146 300 Level FlightAware
05:20PM 42.8270 -88.6980 11° North 127 146 300 Level FlightAware
05:20PM 42.8380 -88.6960 North 126 145 300 Level FlightAware
05:21PM 42.8500 -88.6930 10° North 126 145 300 Level FlightAware
05:21PM 42.8590 -88.6910 North 127 146 300 Level FlightAware
05:21PM 42.8710 -88.6890 North 128 147 360 Level FlightAware
05:22PM 42.8830 -88.6860 10° North 129 148 360 Level FlightAware
05:22PM 42.8950 -88.6830 10° North 128 147 360 Level FlightAware
05:22PM 42.9080 -88.6810 North 128 147 360 Level FlightAware
05:23PM 42.9190 -88.6780 11° North 127 146 360 Level FlightAware
05:23PM 42.9310 -88.6750 10° North 130 150 360 Level FlightAware
05:23PM 42.9450 -88.6730 North 130 150 420 Level FlightAware
05:24PM 42.9570 -88.6700 10° North 130 150 420 Level FlightAware
05:24PM 42.9680 -88.6670 11° North 130 150 420 Level FlightAware
05:25PM 42.9880 -88.6630 North 129 148 420 Level FlightAware
05:25PM 43.0030 -88.6600 North 131 151 480 Level FlightAware
05:25PM 43.0080 -88.6590 North 132 152 480 Level FlightAware
05:26PM 43.0250 -88.6550 10° North 133 153 480 Level FlightAware
05:26PM 43.0400 -88.6520 North 132 152 540 Level FlightAware
05:26PM 43.0550 -88.6480 11° North 128 147 540 Level FlightAware
05:27PM 43.0670 -88.6460 North 126 145 600 Level FlightAware
05:27PM 43.0780 -88.6430 11° North 125 144 600 Level FlightAware
05:27PM 43.0910 -88.6410 North 130 150 660 Level FlightAware
05:28PM 43.1030 -88.6380 10° North 136 157 660 Level FlightAware
05:28PM 43.1130 -88.6360 North 136 157 720 Level FlightAware
05:28PM 43.1270 -88.6330 North 136 157 720 Level FlightAware
05:29PM 43.1400 -88.6300 10° North 137 158 780 Level FlightAware
05:29PM 43.1500 -88.6280 North 138 159 840 Level FlightAware
05:29PM 43.1640 -88.6250 North 134 154 900 Level FlightAware
05:30PM 43.1740 -88.6220 12° North 134 154 960 Level FlightAware
05:30PM 43.1860 -88.6200 North 132 152 1,020 Level FlightAware
05:30PM 43.2050 -88.6160 North 137 158 1,080 Level FlightAware
05:31PM 43.2150 -88.6140 North 136 157 1,200 Level FlightAware
05:31PM 43.2330 -88.6100 North 137 158 1,320 Level FlightAware
05:32PM 43.2470 -88.6060 12° North 137 158 1,500 Level FlightAware
05:32PM 43.2640 -88.6030 North 136 157 1,680 Level FlightAware
05:32PM 43.2780 -88.5990 12° North 134 154 1,980 Level FlightAware
05:33PM 43.2940 -88.5960 North 134 154 2,340 Level FlightAware
05:33PM 43.3070 -88.5930 10° North 134 154 2,940 Level FlightAware
05:35PM 43.3500 -88.5833 10° North 138 159 5,000 1,920 Climbing KMKE
05:36PM 43.4000 -88.5667 14° North 139 160 5,000  Level KMKE
05:37PM 43.4464 -88.5631 North 138 159 5,000  Level Chicago Center
05:38PM 43.4847 -88.5547 North 137 158 5,000  Level Chicago Center
05:39PM 43.5222 -88.5456 10° North 137 158 5,000  Level Chicago Center
05:40PM 43.5603 -88.5372 North 137 158 5,000  Level Chicago Center
05:41PM 43.6058 -88.5281 North 138 159 5,100 -180 Climbing Chicago Center
05:42PM 43.6425 -88.5194 10° North 137 158 4,700 -540 Descending Chicago Center
05:43PM 43.6819 -88.5114 North 139 160 4,000 -540 Descending Chicago Center
05:44PM 43.7183 -88.5044 North 142 163 3,700 -300 Descending Chicago Center
05:46PM 43.7581 -88.4833 North  Level FlightAware Approximate
05:53PM 43.7667 -88.4833 North  Level FlightAware Approximate
05:54PM 43.7712 -88.4884 North  Level Estimated
05:55PM 43.7667 -88.4833 North  Level FlightAware Approximate
05:56PM 43.7712 -88.4884 North  Level Estimated